createdAt,value
2017-03-04T00:00:41.643Z,994.2
2017-03-04T00:03:14.120Z,994
2017-03-04T00:05:46.583Z,994
2017-03-04T00:08:19.062Z,994
2017-03-04T00:10:51.975Z,993.9
2017-03-04T00:13:24.465Z,993.9
2017-03-04T00:15:56.953Z,993.9
2017-03-04T00:18:29.436Z,993.9
2017-03-04T00:21:02.335Z,994
2017-03-04T00:23:34.832Z,994
2017-03-04T00:26:07.735Z,994
2017-03-04T00:28:40.208Z,994
2017-03-04T00:31:12.737Z,994
2017-03-04T00:33:45.244Z,993.9
2017-03-04T00:36:18.170Z,993.9
2017-03-04T00:38:50.644Z,993.8
2017-03-04T00:41:23.116Z,993.8
2017-03-04T00:43:55.594Z,993.8
2017-03-04T00:46:28.106Z,993.8
2017-03-04T00:49:00.601Z,993.7
2017-03-04T00:51:33.931Z,993.6
2017-03-04T00:54:06.403Z,993.6
2017-03-04T00:56:38.874Z,993.5
2017-03-04T00:59:11.782Z,993.5
2017-03-04T01:01:44.265Z,993.4
2017-03-04T01:04:17.163Z,993.4
2017-03-04T01:06:49.671Z,993.3
2017-03-04T01:09:22.340Z,993.3
2017-03-04T01:11:55.072Z,993.2
2017-03-04T01:14:28.409Z,993.2
2017-03-04T01:17:01.333Z,993.1
2017-03-04T01:19:34.436Z,993.1
2017-03-04T01:22:07.122Z,993.1
2017-03-04T01:24:39.603Z,993.1
2017-03-04T01:27:12.072Z,993.1
2017-03-04T01:29:44.562Z,993
2017-03-04T01:32:17.468Z,992.9
2017-03-04T01:34:49.956Z,992.9
2017-03-04T01:37:22.874Z,992.9
2017-03-04T01:39:55.371Z,992.9
2017-03-04T01:42:28.301Z,993
2017-03-04T01:45:01.211Z,993
2017-03-04T01:47:33.716Z,992.9
2017-03-04T01:50:07.035Z,992.8
2017-03-04T01:52:39.979Z,992.8
2017-03-04T01:55:12.863Z,992.8
2017-03-04T01:57:45.341Z,992.6
2017-03-04T02:00:17.821Z,992.6
2017-03-04T02:02:50.306Z,992.6
2017-03-04T02:05:22.933Z,992.6
2017-03-04T02:07:55.829Z,992.6
2017-03-04T02:10:28.741Z,992.6
2017-03-04T02:13:01.240Z,992.7
2017-03-04T02:15:33.728Z,992.6
2017-03-04T02:18:06.638Z,992.6
2017-03-04T02:20:39.120Z,992.5
2017-03-04T02:23:11.596Z,992.5
2017-03-04T02:25:44.080Z,992.5
2017-03-04T02:28:16.562Z,992.5
2017-03-04T02:30:49.061Z,992.4
2017-03-04T02:33:21.964Z,992.5
2017-03-04T02:35:54.455Z,992.5
2017-03-04T02:38:26.918Z,992.4
2017-03-04T02:40:59.400Z,992.4
2017-03-04T02:43:32.091Z,992.4
2017-03-04T02:46:04.597Z,992.3
2017-03-04T02:48:37.504Z,992.4
2017-03-04T02:51:09.983Z,992.4
2017-03-04T02:53:42.894Z,992.3
2017-03-04T02:56:15.392Z,992.3
2017-03-04T02:58:47.879Z,992.4
2017-03-04T03:01:20.375Z,992.3
2017-03-04T03:03:53.279Z,992.2
2017-03-04T03:06:25.758Z,992.1
2017-03-04T03:08:58.685Z,992
2017-03-04T03:11:31.598Z,991.9
2017-03-04T03:14:04.079Z,992
2017-03-04T03:16:36.572Z,992
2017-03-04T03:19:09.050Z,992
2017-03-04T03:21:41.523Z,992
2017-03-04T03:24:14.003Z,992
2017-03-04T03:26:46.956Z,992
2017-03-04T03:29:19.865Z,991.9
2017-03-04T03:31:52.340Z,991.9
2017-03-04T03:34:24.818Z,992
2017-03-04T03:36:57.292Z,992
2017-03-04T03:39:29.789Z,992
2017-03-04T03:42:02.295Z,991.9
2017-03-04T03:44:34.791Z,991.9
2017-03-04T03:47:07.279Z,991.8
2017-03-04T03:49:39.961Z,991.9
2017-03-04T03:52:12.883Z,991.9
2017-03-04T03:54:45.370Z,991.9
2017-03-04T03:57:17.839Z,991.7
2017-03-04T03:59:50.322Z,991.5
2017-03-04T04:02:23.231Z,991.5
2017-03-04T04:04:56.139Z,991.5
2017-03-04T04:07:28.606Z,991.4
2017-03-04T04:10:01.951Z,991.4
2017-03-04T04:12:34.467Z,991.4
2017-03-04T04:15:07.384Z,991.4
2017-03-04T04:17:39.876Z,991.3
2017-03-04T04:20:12.786Z,991.4
2017-03-04T04:22:45.265Z,991.4
2017-03-04T04:25:17.774Z,991.4
2017-03-04T04:27:50.239Z,991.4
2017-03-04T04:30:22.718Z,991.4
2017-03-04T04:32:55.198Z,991.4
2017-03-04T04:35:27.694Z,991.4
2017-03-04T04:38:00.162Z,991.4
2017-03-04T04:40:32.665Z,991.3
2017-03-04T04:43:05.816Z,991.3
2017-03-04T04:45:38.719Z,991.2
2017-03-04T04:48:11.189Z,991.2
2017-03-04T04:50:43.680Z,991.2
2017-03-04T04:53:16.185Z,991.2
2017-03-04T04:55:49.089Z,991.1
2017-03-04T04:58:21.570Z,991
2017-03-04T05:00:54.054Z,991
2017-03-04T05:03:26.543Z,990.9
2017-03-04T05:05:59.027Z,991
2017-03-04T05:08:31.718Z,990.9
2017-03-04T05:11:04.225Z,990.9
2017-03-04T05:13:36.740Z,990.9
2017-03-04T05:16:09.435Z,990.9
2017-03-04T05:18:41.945Z,990.8
2017-03-04T05:21:14.629Z,990.8
2017-03-04T05:23:47.124Z,990.7
2017-03-04T05:26:20.015Z,990.7
2017-03-04T05:28:52.500Z,990.7
2017-03-04T05:31:24.964Z,990.7
2017-03-04T05:33:57.471Z,990.7
2017-03-04T05:36:30.385Z,990.7
2017-03-04T05:39:02.858Z,990.7
2017-03-04T05:41:35.355Z,990.6
2017-03-04T05:44:08.258Z,990.5
2017-03-04T05:46:40.738Z,990.5
2017-03-04T05:49:13.222Z,990.5
2017-03-04T05:51:45.704Z,990.5
2017-03-04T05:54:18.224Z,990.6
2017-03-04T05:56:51.148Z,990.7
2017-03-04T05:59:23.654Z,990.7
2017-03-04T06:01:56.152Z,990.7
2017-03-04T06:04:28.619Z,990.6
2017-03-04T06:07:01.104Z,990.6
2017-03-04T06:09:34.013Z,990.6
2017-03-04T06:12:06.507Z,990.6
2017-03-04T06:14:39.417Z,990.6
2017-03-04T06:17:11.907Z,990.6
2017-03-04T06:19:44.384Z,990.6
2017-03-04T06:22:17.269Z,990.8
2017-03-04T06:24:49.786Z,990.8
2017-03-04T06:27:22.273Z,990.8
2017-03-04T06:29:54.784Z,990.7
2017-03-04T06:32:27.283Z,990.7
2017-03-04T06:35:21.694Z,990.7
2017-03-04T06:38:27.082Z,990.7
2017-03-04T06:40:59.554Z,990.7
2017-03-04T06:43:32.465Z,990.6
2017-03-04T06:46:05.371Z,990.7
2017-03-04T06:48:40.675Z,990.6
2017-03-04T06:51:21.593Z,990.5
2017-03-04T06:54:27.766Z,990.5
2017-03-04T06:57:51.988Z,990.6
2017-03-04T07:01:04.317Z,990.5
2017-03-04T07:03:36.822Z,990.5
2017-03-04T07:06:09.338Z,990.5
2017-03-04T07:08:41.860Z,990.5
2017-03-04T07:11:14.331Z,990.4
2017-03-04T07:13:46.992Z,990.4
2017-03-04T07:16:19.904Z,990.3
2017-03-04T07:18:52.821Z,990.3
2017-03-04T07:21:25.366Z,990.3
2017-03-04T07:23:57.856Z,990.2
2017-03-04T07:26:30.432Z,990.3
2017-03-04T07:29:02.921Z,990.3
2017-03-04T07:31:35.550Z,990.2
2017-03-04T07:34:08.027Z,990.2
2017-03-04T07:36:40.620Z,990.2
2017-03-04T07:39:13.145Z,990.2
2017-03-04T07:41:46.243Z,990.2
2017-03-04T07:44:33.764Z,990.2
2017-03-04T07:47:06.734Z,990.2
2017-03-04T07:49:39.588Z,990.1
2017-03-04T07:52:12.071Z,990.1
2017-03-04T07:54:45.401Z,990.1
2017-03-04T07:57:18.300Z,990
2017-03-04T07:59:51.418Z,990
2017-03-04T08:02:24.231Z,990
2017-03-04T08:04:56.713Z,990
2017-03-04T08:07:29.192Z,990
2017-03-04T08:10:01.699Z,990
2017-03-04T08:12:35.750Z,990
2017-03-04T08:15:08.230Z,990
2017-03-04T08:17:40.715Z,990
2017-03-04T08:20:13.206Z,990
2017-03-04T08:22:46.553Z,990.1
2017-03-04T08:25:19.484Z,990
2017-03-04T08:27:52.283Z,990
2017-03-04T08:30:25.124Z,990
2017-03-04T08:32:57.623Z,990
2017-03-04T08:35:30.116Z,989.9
2017-03-04T08:38:03.020Z,989.9
2017-03-04T08:40:35.518Z,989.9
2017-03-04T08:43:08.027Z,989.9
2017-03-04T08:45:40.507Z,989.9
2017-03-04T08:48:13.970Z,989.8
2017-03-04T08:50:46.741Z,989.9
2017-03-04T08:53:19.662Z,989.9
2017-03-04T08:55:52.565Z,989.8
2017-03-04T08:58:25.466Z,989.8
2017-03-04T09:00:58.809Z,989.8
2017-03-04T09:03:31.299Z,989.8
2017-03-04T09:06:04.311Z,989.8
2017-03-04T09:08:37.229Z,989.8
2017-03-04T09:11:09.734Z,989.8
2017-03-04T09:13:42.217Z,989.8
2017-03-04T09:16:15.570Z,989.8
2017-03-04T09:18:48.054Z,989.8
2017-03-04T09:21:20.539Z,989.8
2017-03-04T09:23:53.025Z,989.8
2017-03-04T09:26:25.528Z,989.7
2017-03-04T09:28:58.015Z,989.5
2017-03-04T09:31:30.948Z,989.5
2017-03-04T09:34:03.840Z,989.5
2017-03-04T09:36:36.345Z,989.4
2017-03-04T09:39:08.823Z,989.4
2017-03-04T09:41:41.731Z,989.4
2017-03-04T09:44:14.233Z,989.5
2017-03-04T09:46:47.140Z,989.4
2017-03-04T09:49:19.621Z,989.4
2017-03-04T09:51:52.522Z,989.4
2017-03-04T09:54:25.020Z,989.5
2017-03-04T09:56:57.537Z,989.5
2017-03-04T09:59:30.673Z,989.4
2017-03-04T10:02:03.183Z,989.4
2017-03-04T10:04:35.659Z,989.5
2017-03-04T10:07:08.149Z,989.5
2017-03-04T10:09:40.622Z,989.4
2017-03-04T10:12:13.096Z,989.4
2017-03-04T10:14:45.580Z,989.4
2017-03-04T10:17:18.067Z,989.4
2017-03-04T10:19:50.977Z,989.4
2017-03-04T10:22:23.888Z,989.4
2017-03-04T10:24:56.388Z,989.4
2017-03-04T10:27:28.897Z,989.4
2017-03-04T10:30:01.388Z,989.4
2017-03-04T10:32:34.317Z,989.5
2017-03-04T10:35:07.652Z,989.4
2017-03-04T10:37:40.139Z,989.4
2017-03-04T10:40:12.639Z,989.4
2017-03-04T10:42:45.969Z,989.4
2017-03-04T10:45:18.459Z,989.4
2017-03-04T10:47:52.001Z,989.3
2017-03-04T10:50:24.485Z,989.3
2017-03-04T10:52:57.412Z,989.3
2017-03-04T10:55:29.911Z,989.3
2017-03-04T10:58:02.389Z,989.3
2017-03-04T11:00:34.887Z,989.3
2017-03-04T11:03:07.375Z,989.2
2017-03-04T11:05:40.258Z,989.2
2017-03-04T11:08:12.741Z,989.3
2017-03-04T11:10:45.219Z,989.3
2017-03-04T11:13:18.127Z,989.2
2017-03-04T11:15:50.621Z,989.2
2017-03-04T11:18:23.301Z,989.3
2017-03-04T11:20:56.211Z,989.2
2017-03-04T11:23:28.711Z,989.2
2017-03-04T11:26:01.200Z,989.1
2017-03-04T11:28:33.676Z,989.1
2017-03-04T11:31:06.191Z,989.1
2017-03-04T11:33:40.357Z,989
2017-03-04T11:36:12.849Z,988.9
2017-03-04T11:38:45.331Z,988.8
2017-03-04T11:41:18.284Z,988.8
2017-03-04T11:43:50.756Z,988.7
2017-03-04T11:46:23.258Z,988.7
2017-03-04T11:48:55.729Z,988.6
2017-03-04T11:51:28.217Z,988.6
2017-03-04T11:54:01.749Z,988.6
2017-03-04T11:56:34.665Z,988.6
2017-03-04T11:59:07.159Z,988.6
2017-03-04T12:01:40.084Z,988.6
2017-03-04T12:04:12.568Z,988.6
2017-03-04T12:06:45.055Z,988.5
2017-03-04T12:09:17.530Z,988.5
2017-03-04T12:11:50.428Z,988.5
2017-03-04T12:14:22.982Z,988.5
2017-03-04T12:16:55.460Z,988.4
2017-03-04T12:19:27.949Z,988.4
2017-03-04T12:22:00.460Z,988.4
2017-03-04T12:24:33.396Z,988.3
2017-03-04T12:27:06.322Z,988.4
2017-03-04T12:29:39.236Z,988.3
2017-03-04T12:32:11.775Z,988.3
2017-03-04T12:34:44.264Z,988.3
2017-03-04T12:37:16.745Z,988.3
2017-03-04T12:39:49.255Z,988.3
2017-03-04T12:42:21.730Z,988.3
2017-03-04T12:44:54.676Z,988.3
2017-03-04T12:47:27.141Z,988.3
2017-03-04T12:49:59.632Z,988.3
2017-03-04T12:52:32.546Z,988.3
2017-03-04T12:55:05.051Z,988.3
2017-03-04T12:57:38.017Z,988.3
2017-03-04T13:00:25.781Z,988.2
2017-03-04T13:03:04.397Z,988.3
2017-03-04T13:05:44.640Z,988.2
2017-03-04T13:08:55.554Z,988.3
2017-03-04T13:12:12.442Z,988.3
2017-03-04T13:15:42.859Z,988.2
2017-03-04T13:19:02.647Z,988.1
2017-03-04T13:22:24.171Z,988.2
2017-03-04T13:25:44.387Z,988.3
2017-03-04T13:29:07.549Z,988.2
2017-03-04T13:32:20.778Z,988.2
2017-03-04T13:35:48.626Z,988.2
2017-03-04T13:39:00.855Z,988.2
2017-03-04T13:42:09.469Z,988.2
2017-03-04T13:45:35.674Z,988.2
2017-03-04T13:51:42.330Z,988.1
2017-03-04T13:54:52.064Z,988.1
2017-03-04T13:58:03.520Z,988.2
2017-03-04T14:01:20.021Z,988.2
2017-03-04T14:04:23.343Z,988.2
2017-03-04T14:07:32.846Z,988.1
2017-03-04T14:10:43.477Z,988.1
2017-03-04T14:13:25.878Z,988.1
2017-03-04T14:15:59.195Z,988.1
2017-03-04T14:18:31.735Z,988.1
2017-03-04T14:21:04.548Z,988.1
2017-03-04T14:23:37.545Z,988
2017-03-04T14:26:11.039Z,988
2017-03-04T14:28:44.796Z,988
2017-03-04T14:31:18.748Z,988
2017-03-04T14:33:56.021Z,988
2017-03-04T14:36:31.592Z,988
2017-03-04T14:39:06.304Z,987.9
2017-03-04T14:41:38.992Z,987.9
2017-03-04T14:44:11.791Z,987.9
2017-03-04T14:46:45.841Z,987.8
2017-03-04T14:49:19.931Z,987.8
2017-03-04T14:51:55.337Z,987.8
2017-03-04T14:54:33.301Z,987.8
2017-03-04T14:57:13.657Z,987.8
2017-03-04T14:59:54.482Z,987.8
2017-03-04T15:02:36.480Z,987.8
2017-03-04T15:08:40.111Z,987.8
2017-03-04T15:11:32.679Z,987.7
2017-03-04T15:14:31.905Z,987.8
2017-03-04T15:17:23.252Z,987.7
2017-03-04T15:23:40.728Z,987.7
2017-03-04T15:27:00.687Z,987.7
2017-03-04T15:30:15.726Z,987.7
2017-03-04T15:33:35.912Z,987.6
2017-03-04T15:36:55.469Z,987.7
2017-03-04T15:40:26.023Z,987.7
2017-03-04T15:43:54.272Z,987.7
2017-03-04T15:47:13.614Z,987.7
2017-03-04T15:50:41.763Z,987.6
2017-03-04T15:54:09.074Z,987.6
2017-03-04T15:57:33.170Z,987.6
2017-03-04T16:01:01.988Z,987.6
2017-03-04T16:04:33.511Z,987.6
2017-03-04T16:07:41.442Z,987.6
2017-03-04T16:10:41.796Z,987.6
2017-03-04T16:13:19.521Z,987.6
2017-03-04T16:15:54.028Z,987.6
2017-03-04T16:18:27.533Z,987.7
2017-03-04T16:21:01.351Z,987.7
2017-03-04T16:23:34.476Z,987.7
2017-03-04T16:26:07.098Z,987.7
2017-03-04T16:28:39.742Z,987.7
2017-03-04T16:31:12.623Z,987.8
2017-03-04T16:33:45.373Z,987.7
2017-03-04T16:36:18.210Z,987.8
2017-03-04T16:38:51.440Z,987.8
2017-03-04T16:41:25.790Z,987.8
2017-03-04T16:43:58.895Z,987.8
2017-03-04T16:46:31.770Z,987.8
2017-03-04T16:49:05.946Z,987.8
2017-03-04T16:51:39.432Z,987.8
2017-03-04T16:54:13.543Z,987.8
2017-03-04T16:56:46.665Z,987.8
2017-03-04T16:59:19.562Z,987.8
2017-03-04T17:01:52.069Z,987.9
2017-03-04T17:04:24.611Z,987.9
2017-03-04T17:06:57.092Z,987.8
2017-03-04T17:09:29.575Z,987.8
2017-03-04T17:12:02.503Z,987.8
2017-03-04T17:14:34.978Z,987.8
2017-03-04T17:17:07.457Z,987.8
2017-03-04T17:19:40.374Z,987.8
2017-03-04T17:22:12.869Z,987.8
2017-03-04T17:24:45.368Z,987.8
2017-03-04T17:27:17.866Z,987.8
2017-03-04T17:29:51.194Z,987.8
2017-03-04T17:32:23.681Z,987.8
2017-03-04T17:34:56.176Z,987.8
2017-03-04T17:37:29.088Z,987.8
2017-03-04T17:40:02.429Z,987.8
2017-03-04T17:42:34.925Z,987.8
2017-03-04T17:45:07.437Z,987.8
2017-03-04T17:47:39.921Z,987.7
2017-03-04T17:50:12.396Z,987.8
2017-03-04T17:52:45.284Z,987.8
2017-03-04T17:55:17.771Z,987.8
2017-03-04T17:57:50.259Z,987.8
2017-03-04T18:00:22.968Z,987.8
2017-03-04T18:02:55.896Z,987.8
2017-03-04T18:05:28.409Z,987.8
2017-03-04T18:08:00.900Z,987.8
2017-03-04T18:10:34.265Z,987.8
2017-03-04T18:13:06.745Z,987.8
2017-03-04T18:15:39.211Z,987.8
2017-03-04T18:18:11.723Z,987.8
2017-03-04T18:20:44.636Z,987.7
2017-03-04T18:23:17.531Z,987.7
2017-03-04T18:25:50.446Z,987.7
2017-03-04T18:28:23.344Z,987.7
2017-03-04T18:30:55.855Z,987.7
2017-03-04T18:33:28.331Z,987.6
2017-03-04T18:36:00.835Z,987.6
2017-03-04T18:38:33.774Z,987.5
2017-03-04T18:41:06.252Z,987.5
2017-03-04T18:43:38.740Z,987.4
2017-03-04T18:46:11.243Z,987.4
2017-03-04T18:48:44.564Z,987.4
2017-03-04T18:51:17.059Z,987.3
2017-03-04T18:53:49.544Z,987.3
2017-03-04T18:56:22.013Z,987.3
2017-03-04T18:58:54.504Z,987.2
2017-03-04T19:01:27.013Z,987.2
2017-03-04T19:03:59.541Z,987.2
2017-03-04T19:06:32.032Z,987.1
2017-03-04T19:09:04.521Z,987.1
2017-03-04T19:11:37.459Z,987.1
2017-03-04T19:14:10.361Z,987.1
2017-03-04T19:16:43.270Z,987
2017-03-04T19:19:15.748Z,987
2017-03-04T19:21:48.668Z,987
2017-03-04T19:24:21.166Z,987
2017-03-04T19:26:54.132Z,987
2017-03-04T19:29:26.618Z,987
2017-03-04T19:31:59.088Z,987
2017-03-04T19:34:31.588Z,987
2017-03-04T19:37:04.096Z,986.9
2017-03-04T19:39:36.657Z,986.9
2017-03-04T19:42:09.142Z,987
2017-03-04T19:44:41.636Z,987
2017-03-04T19:47:14.573Z,987
2017-03-04T19:49:47.501Z,987
2017-03-04T19:52:19.999Z,987
2017-03-04T19:54:52.499Z,987
2017-03-04T19:57:26.031Z,987
2017-03-04T19:59:58.533Z,987
2017-03-04T20:02:31.017Z,987
2017-03-04T20:05:03.917Z,987
2017-03-04T20:07:36.419Z,986.9
2017-03-04T20:10:09.343Z,986.9
2017-03-04T20:12:41.832Z,986.8
2017-03-04T20:15:14.334Z,986.8
2017-03-04T20:17:46.847Z,986.8
2017-03-04T20:20:20.175Z,986.8
2017-03-04T20:22:53.274Z,986.8
2017-03-04T20:25:25.757Z,986.8
2017-03-04T20:27:58.266Z,986.9
2017-03-04T20:30:30.770Z,986.9
2017-03-04T20:33:03.287Z,986.8
2017-03-04T20:35:35.779Z,986.8
2017-03-04T20:38:09.127Z,986.8
2017-03-04T20:40:41.598Z,986.8
2017-03-04T20:43:14.516Z,986.8
2017-03-04T20:45:46.994Z,986.8
2017-03-04T20:48:19.898Z,986.7
2017-03-04T20:50:52.804Z,986.8
2017-03-04T20:53:25.276Z,986.8
2017-03-04T20:55:57.769Z,986.7
2017-03-04T20:58:31.091Z,986.7
2017-03-04T21:01:04.044Z,986.7
2017-03-04T21:03:36.953Z,986.7
2017-03-04T21:06:09.444Z,986.7
2017-03-04T21:08:41.941Z,986.8
2017-03-04T21:11:14.853Z,986.8
2017-03-04T21:13:47.333Z,986.7
2017-03-04T21:16:20.285Z,986.7
2017-03-04T21:18:53.185Z,986.6
2017-03-04T21:21:25.677Z,986.6
2017-03-04T21:23:58.608Z,986.6
2017-03-04T21:26:31.508Z,986.5
2017-03-04T21:29:04.893Z,986.5
2017-03-04T21:31:37.392Z,986.5
2017-03-04T21:34:09.884Z,986.4
2017-03-04T21:36:42.376Z,986.4
2017-03-04T21:39:14.901Z,986.3
2017-03-04T21:41:47.394Z,986.3
2017-03-04T21:44:20.313Z,986.2
2017-03-04T21:46:52.810Z,986.2
2017-03-04T21:49:25.308Z,986.2
2017-03-04T21:51:57.838Z,986.1
2017-03-04T21:54:30.338Z,986
2017-03-04T21:57:02.805Z,986
2017-03-04T21:59:35.321Z,986
2017-03-04T22:02:07.838Z,985.9
2017-03-04T22:04:40.320Z,986
2017-03-04T22:07:12.800Z,986
2017-03-04T22:09:45.273Z,986
2017-03-04T22:12:17.760Z,985.9
2017-03-04T22:14:50.694Z,985.9
2017-03-04T22:17:23.203Z,985.9
2017-03-04T22:19:55.663Z,985.8
2017-03-04T22:22:28.148Z,985.8
2017-03-04T22:25:00.635Z,985.8
2017-03-04T22:27:33.992Z,985.8
2017-03-04T22:30:06.893Z,985.8
2017-03-04T22:32:39.383Z,985.8
2017-03-04T22:35:12.281Z,985.8
2017-03-04T22:37:44.774Z,985.8
2017-03-04T22:40:17.292Z,985.8
2017-03-04T22:42:49.773Z,985.8
2017-03-04T22:45:22.260Z,985.7
2017-03-04T22:47:54.732Z,985.7
2017-03-04T22:50:27.234Z,985.7
2017-03-04T22:52:59.718Z,985.7
2017-03-04T22:55:32.205Z,985.8
2017-03-04T22:58:04.709Z,985.7
2017-03-04T23:00:37.214Z,985.7
2017-03-04T23:03:09.743Z,985.7
2017-03-04T23:05:42.247Z,985.7
2017-03-04T23:08:15.588Z,985.7
2017-03-04T23:10:48.554Z,985.7
2017-03-04T23:13:21.061Z,985.7
2017-03-04T23:15:53.560Z,985.7
2017-03-04T23:18:26.043Z,985.7
2017-03-04T23:20:58.583Z,985.7
2017-03-04T23:23:31.074Z,985.7
2017-03-04T23:26:03.571Z,985.7
2017-03-04T23:28:36.054Z,985.7
2017-03-04T23:31:08.597Z,985.7
2017-03-04T23:33:41.086Z,985.7
2017-03-04T23:36:13.572Z,985.7
2017-03-04T23:38:46.078Z,985.6
2017-03-04T23:41:18.561Z,985.6
2017-03-04T23:43:51.060Z,985.6
2017-03-04T23:46:23.989Z,985.6
2017-03-04T23:48:56.897Z,985.6
2017-03-04T23:51:29.372Z,985.7
2017-03-04T23:54:01.868Z,985.7
2017-03-04T23:56:35.200Z,985.7
2017-03-04T23:59:07.697Z,985.7
